Hlavní strana
METAR-TAF:

METAR-TAF

Letiště :

Bangkok, Thajsko

zeměpisná šířka: 13-54-45N, zeměpisná délka: 100-36-24E, výška: 4 m

Aktuální stav počasí

Zpráva byla vytvořena před 39 minutami, v 18:30 UTC
Západojihozápadní vítr 6 kt
Teplota 27°C
Vlhkost vzduchu 89%
Tlak 1007 hPa
Viditelnost 10 km a více
Skoro jasno ve výšce 2000 ft

METAR: VTBD 151830Z 24006KT 9999 FEW020 27/25 Q1007 NOSIG

Čas: 02:09 (19:09 UTC)

Předpověď počasí

Zpráva byla vytvořena před 2 hodinami a 9 minutami, v 17:00 UTC
Předpověď platná od 15 v 18 UTC do 16 v 24 UTC
Jihozápadní vítr 8 kt
Viditelnost 10 km a více
Skoro jasno ve výšce 2000 ft
Polojasno ve výšce 10000 ft
Dočasný
od 16 v 08 UTC do 16 v 12 UTC
Jihozápadní vítr 15 kt
Viditelnost: 5000 m
Skoro jasno ve výšce 1800 ft, Cumulonimbus.
Polojasno ve výšce 3000 ft
Oblačno až skoro zataženo ve výšce 10000 ft
bouřka, déšť

TAF: VTBD 151700Z 1518/1624 23008KT 9999 FEW020 SCT100 TEMPO 1608/1612 23015KT 5000 TSRA FEW018CB SCT030 BKN100

Stav a předpovědi počasí z více než 4 000 letišť (zprávy METAR a TAF).

Červené a žluté tečky na mapě představují dostupné meteorologické stanice.

Když kurzor umístíte na tečku, zobrazí se název stanice.

Pak kliknutím zobrazíte stav a předpověď počasí.

Chcete-li změnit mapu, kliknutím na zelené tlačítko se znaménkem +mapu přiblížíte, kliknutím na zelené tlačítko se znaménkem – mapu oddálíte a kliknutím na zelené šipky přejdete na sousední mapy.


METAR-TAF: